Hornbrook, California
Current Conditions -  °F | °C
As of 6:53 PM on Monday 20 Oct 2014 (Local Time) from KSIY Reporting Station
Overcast Overcast  
Wind Chill: 51°   Ceiling: 6000
Heat Index: 51°   Visibility: 10mi
Dew Point: 40°   Wind: 23mph
Humidity: 66%   Direction: 250°WSW
Pressure: 29.9"   Gusts: 31mph
Location:  41.91°N, 122.56°W
Report Text: KSIY 210153Z AUTO 25020G27KT 10SM FEW042 BKN060 OVC095 11/04 A2990 RMK AO2 PK WND 25027/0146 RAB15E39 SLP127 P0001 T01060044
Loading
Personal Weather Stations






























Interactive Weather Map
Tropical Storm Tracking
New forecast layout! Learn more

10-Day Weather Forecast

Advertisements
Track Severe Weather on mobile